Time;durP1;ratioP1;P1;durP2;ratioP2;P2;SDS_P1;SDS_P2;PMS_P1;PMS_P2;Temp;Humidity;BMP_temperature;BMP_pressure;BME280_temperature;BME280_humidity;BME280_pressure;Samples;Min_cycle;Max_cycle;Signal;HPM_P1;HPM_P2
2023/08/19 00:02:44;;;;;;;1.13;0.60;;;22.20;63.40;;;;;;6242936;28;20284;-70
2023/08/19 00:05:45;;;;;;;0.60;0.60;;;22.20;63.30;;;;;;6259432;28;20045;-70
2023/08/19 00:08:46;;;;;;;0.50;0.50;;;22.20;63.30;;;;;;6267580;28;20410;-70
2023/08/19 00:11:46;;;;;;;0.50;0.50;;;22.20;63.30;;;;;;6242544;28;20025;-71
2023/08/19 00:14:48;;;;;;;0.55;0.50;;;22.20;63.30;;;;;;6250675;28;20035;-70
2023/08/19 00:17:48;;;;;;;0.40;0.40;;;22.20;63.40;;;;;;6267377;28;20036;-70
2023/08/19 00:20:51;;;;;;;0.55;0.55;;;22.20;63.30;;;;;;6252627;28;20025;-70
2023/08/19 00:23:52;;;;;;;0.38;0.38;;;22.20;63.40;;;;;;6243431;28;20049;-71
2023/08/19 00:26:53;;;;;;;0.70;0.60;;;22.20;63.40;;;;;;6268520;28;20021;-71
2023/08/19 00:29:54;;;;;;;0.60;0.52;;;22.20;63.30;;;;;;6266488;28;20013;-71
2023/08/19 00:32:55;;;;;;;0.80;0.60;;;22.20;63.30;;;;;;6247911;28;20471;-71
2023/08/19 00:35:55;;;;;;;0.40;0.40;;;22.20;63.40;;;;;;6262479;28;20060;-71
2023/08/19 00:38:56;;;;;;;0.50;0.50;;;22.20;63.30;;;;;;6273066;28;20071;-70
2023/08/19 00:41:57;;;;;;;0.57;0.57;;;22.20;63.40;;;;;;6250617;28;20469;-70
2023/08/19 00:44:58;;;;;;;0.60;0.60;;;22.20;63.30;;;;;;6253356;28;20066;-70
2023/08/19 00:47:58;;;;;;;0.60;0.60;;;22.20;63.40;;;;;;6272517;28;20538;-71
2023/08/19 00:51:01;;;;;;;0.60;0.60;;;22.20;63.30;;;;;;6259926;28;20025;-71
2023/08/19 00:54:02;;;;;;;0.68;0.63;;;22.20;63.40;;;;;;6248122;28;20037;-70
2023/08/19 00:57:03;;;;;;;0.65;0.55;;;22.20;63.30;;;;;;6269110;28;20056;-70
2023/08/19 01:00:05;;;;;;;0.75;0.70;;;22.20;63.40;;;;;;6268150;28;20026;-71
2023/08/19 01:03:06;;;;;;;0.43;0.43;;;22.20;63.30;;;;;;6269746;28;20029;-70
2023/08/19 01:06:12;;;;;;;0.77;0.75;;;22.20;63.40;;;;;;6258226;28;20036;-70
2023/08/19 01:09:22;;;;;;;0.60;0.60;;;22.20;63.40;;;;;;6247361;28;20046;-71
2023/08/19 01:12:40;;;;;;;0.57;0.57;;;22.20;63.40;;;;;;6268522;28;20029;-70
2023/08/19 01:15:59;;;;;;;0.57;0.57;;;22.20;63.40;;;;;;6265302;28;20044;-71
2023/08/19 01:19:00;;;;;;;0.50;0.50;;;22.20;63.50;;;;;;6247253;28;20041;-70
2023/08/19 01:22:04;;;;;;;0.60;0.60;;;22.20;63.40;;;;;;6264635;28;20021;-71
2023/08/19 01:25:06;;;;;;;0.55;0.52;;;22.20;63.40;;;;;;6271649;28;20017;-71
2023/08/19 01:28:07;;;;;;;0.50;0.50;;;22.20;63.40;;;;;;6246343;28;20502;-70
2023/08/19 01:31:08;;;;;;;0.70;0.60;;;22.20;63.40;;;;;;6253545;28;20017;-70
2023/08/19 01:34:08;;;;;;;0.50;0.50;;;22.20;63.50;;;;;;6269876;28;20036;-70
2023/08/19 01:37:14;;;;;;;1.17;0.70;;;22.20;63.50;;;;;;6254886;28;20025;-71
2023/08/19 01:40:15;;;;;;;0.63;0.57;;;22.20;63.40;;;;;;6245914;28;20022;-71
2023/08/19 01:43:16;;;;;;;0.60;0.60;;;22.20;63.50;;;;;;6249350;28;20026;-71
2023/08/19 01:46:17;;;;;;;0.40;0.40;;;22.20;63.40;;;;;;6254006;28;20141;-71
2023/08/19 01:49:18;;;;;;;0.70;0.50;;;22.20;63.40;;;;;;6270175;28;20051;-70
2023/08/19 01:52:19;;;;;;;0.50;0.50;;;22.20;63.40;;;;;;6255486;28;20021;-71
2023/08/19 01:55:20;;;;;;;0.50;0.50;;;22.20;63.50;;;;;;6246781;28;20021;-71
2023/08/19 01:58:20;;;;;;;0.50;0.50;;;22.20;63.50;;;;;;6266886;28;20033;-70
2023/08/19 02:01:21;;;;;;;0.73;0.60;;;22.20;63.40;;;;;;6264273;28;20549;-70
2023/08/19 02:04:21;;;;;;;0.50;0.50;;;22.20;63.50;;;;;;6246306;28;20025;-71
2023/08/19 02:07:22;;;;;;;0.55;0.55;;;22.20;63.50;;;;;;6260235;28;20191;-71
2023/08/19 02:10:23;;;;;;;1.67;0.60;;;22.20;63.50;;;;;;6269521;28;20049;-71
2023/08/19 02:13:23;;;;;;;0.82;0.75;;;22.20;63.40;;;;;;6248294;28;20083;-70
2023/08/19 02:16:24;;;;;;;0.65;0.60;;;22.20;63.50;;;;;;6249420;28;20055;-70
2023/08/19 02:19:24;;;;;;;0.50;0.50;;;22.20;63.50;;;;;;6268451;28;20064;-70
2023/08/19 02:22:25;;;;;;;0.60;0.60;;;22.20;63.50;;;;;;6258493;28;20411;-71
2023/08/19 02:25:26;;;;;;;0.70;0.60;;;22.20;63.50;;;;;;6245474;28;20021;-71
2023/08/19 02:28:26;;;;;;;0.60;0.60;;;22.20;63.40;;;;;;6265799;28;20032;-70
2023/08/19 02:31:27;;;;;;;0.63;0.63;;;22.20;63.40;;;;;;6266887;28;20611;-71
2023/08/19 02:34:28;;;;;;;0.93;0.82;;;22.20;63.50;;;;;;6244875;28;20022;-70
2023/08/19 02:37:28;;;;;;;0.98;0.88;;;22.20;63.50;;;;;;6255710;28;20017;-70
2023/08/19 02:40:32;;;;;;;0.70;0.70;;;22.20;64.30;;;;;;6270340;28;20415;-70
2023/08/19 02:43:32;;;;;;;0.70;0.60;;;22.20;63.40;;;;;;6263990;28;20047;-70
2023/08/19 02:46:33;;;;;;;0.60;0.60;;;22.20;63.40;;;;;;6268663;28;20025;-70
2023/08/19 02:49:36;;;;;;;0.70;0.70;;;22.20;63.40;;;;;;6245386;28;20530;-71
2023/08/19 02:52:37;;;;;;;0.77;0.70;;;22.20;63.50;;;;;;6254622;28;20387;-71
2023/08/19 02:55:41;;;;;;;0.68;0.60;;;22.20;63.50;;;;;;6269715;28;20104;-71
2023/08/19 02:58:41;;;;;;;0.50;0.50;;;22.30;63.60;;;;;;6251011;28;20116;-71
2023/08/19 03:01:42;;;;;;;0.73;0.70;;;22.20;63.40;;;;;;6244548;28;20380;-71
2023/08/19 03:04:43;;;;;;;0.52;0.52;;;22.20;63.50;;;;;;6269225;28;20070;-71
2023/08/19 03:07:43;;;;;;;0.60;0.60;;;22.20;63.50;;;;;;6260582;28;20025;-70
2023/08/19 03:10:44;;;;;;;0.70;0.70;;;22.20;63.50;;;;;;6244183;28;20057;-71
2023/08/19 03:13:44;;;;;;;0.88;0.70;;;22.20;63.50;;;;;;6260401;28;20029;-70
2023/08/19 03:16:45;;;;;;;0.57;0.57;;;22.20;63.50;;;;;;6268787;28;20500;-70
2023/08/19 03:19:46;;;;;;;0.95;0.80;;;22.20;63.50;;;;;;6244671;28;20051;-71
2023/08/19 03:22:46;;;;;;;0.70;0.70;;;22.20;63.50;;;;;;6250675;28;20024;-70
2023/08/19 03:25:50;;;;;;;0.60;0.60;;;22.20;63.50;;;;;;6268856;28;20025;-71
2023/08/19 03:28:51;;;;;;;0.80;0.60;;;22.20;63.50;;;;;;6253621;28;20084;-71
2023/08/19 03:31:51;;;;;;;0.80;0.60;;;22.30;63.60;;;;;;6244732;28;20958;-71
2023/08/19 03:34:52;;;;;;;0.68;0.68;;;22.20;63.50;;;;;;6265966;28;20071;-70
2023/08/19 03:37:53;;;;;;;0.93;0.80;;;22.20;63.50;;;;;;6261674;28;20192;-70
2023/08/19 03:40:53;;;;;;;0.63;0.60;;;22.20;63.50;;;;;;6243445;28;20032;-71
2023/08/19 03:43:54;;;;;;;0.70;0.70;;;22.20;63.50;;;;;;6257505;28;20024;-71
2023/08/19 03:46:55;;;;;;;0.95;0.75;;;22.20;63.50;;;;;;6266636;28;20117;-71
2023/08/19 03:49:55;;;;;;;1.42;0.95;;;22.20;63.50;;;;;;6247807;28;20037;-70
2023/08/19 03:52:56;;;;;;;0.80;0.80;;;22.20;63.50;;;;;;6247924;28;20048;-71
2023/08/19 03:55:56;;;;;;;1.30;0.98;;;22.20;63.50;;;;;;6268785;28;20095;-72
2023/08/19 03:58:57;;;;;;;0.75;0.70;;;22.20;63.50;;;;;;6256649;28;20423;-70
2023/08/19 04:01:58;;;;;;;0.80;0.75;;;22.20;63.50;;;;;;6243910;28;20032;-71
2023/08/19 04:05:04;;;;;;;0.70;0.60;;;22.20;63.50;;;;;;6262836;28;20100;-71
2023/08/19 04:08:05;;;;;;;0.80;0.80;;;22.20;63.50;;;;;;6265260;28;20021;-70
2023/08/19 04:11:06;;;;;;;0.80;0.75;;;22.30;63.60;;;;;;6243541;28;20065;-71
2023/08/19 04:14:07;;;;;;;1.02;0.80;;;22.20;63.50;;;;;;6254407;28;20492;-70
2023/08/19 04:17:08;;;;;;;0.60;0.57;;;22.20;63.50;;;;;;6268519;28;20032;-70
2023/08/19 04:20:09;;;;;;;0.70;0.70;;;22.30;63.60;;;;;;6248427;28;20427;-71
2023/08/19 04:23:10;;;;;;;0.70;0.60;;;22.20;63.50;;;;;;6245510;28;20013;-70
2023/08/19 04:26:10;;;;;;;0.68;0.60;;;22.20;63.50;;;;;;6268223;28;20032;-71
2023/08/19 04:29:11;;;;;;;0.80;0.80;;;22.20;63.60;;;;;;6258390;28;20025;-70
2023/08/19 04:32:13;;;;;;;0.50;0.50;;;22.30;63.70;;;;;;6243774;28;20037;-71
2023/08/19 04:35:13;;;;;;;0.68;0.60;;;22.30;63.70;;;;;;6259738;28;20052;-71
2023/08/19 04:38:15;;;;;;;0.93;0.82;;;22.20;63.60;;;;;;6267011;28;20033;-70
2023/08/19 04:41:16;;;;;;;1.05;0.88;;;22.20;63.60;;;;;;6242717;28;20021;-71
2023/08/19 04:44:17;;;;;;;1.00;0.70;;;22.20;63.60;;;;;;6251087;28;20491;-71
2023/08/19 04:47:17;;;;;;;0.68;0.68;;;22.20;64.40;;;;;;6267995;28;20100;-71
2023/08/19 04:50:19;;;;;;;0.85;0.82;;;22.20;63.60;;;;;;6251869;28;20013;-71
2023/08/19 04:53:20;;;;;;;0.70;0.60;;;22.20;63.60;;;;;;6243276;28;20025;-71
2023/08/19 04:56:21;;;;;;;0.90;0.80;;;22.20;63.60;;;;;;6265723;28;20082;-70
2023/08/19 04:59:21;;;;;;;1.40;0.90;;;22.20;63.60;;;;;;6260815;28;20053;-71
2023/08/19 05:02:22;;;;;;;1.00;0.70;;;22.30;63.70;;;;;;6228883;28;20440;-71
2023/08/19 05:05:22;;;;;;;0.80;0.80;;;22.20;63.60;;;;;;6246825;28;20363;-71
2023/08/19 05:08:23;;;;;;;1.10;0.98;;;22.20;63.60;;;;;;6267611;28;20028;-71
2023/08/19 05:11:24;;;;;;;0.70;0.70;;;22.30;63.70;;;;;;6245594;28;20445;-71
2023/08/19 05:14:25;;;;;;;0.70;0.70;;;22.20;63.60;;;;;;6250241;28;20078;-71
2023/08/19 05:17:26;;;;;;;0.80;0.70;;;22.20;63.60;;;;;;6270633;28;20064;-70
2023/08/19 05:20:27;;;;;;;0.90;0.77;;;22.20;63.60;;;;;;6257473;28;20041;-71
2023/08/19 05:23:27;;;;;;;0.75;0.75;;;22.30;63.70;;;;;;6247739;28;20159;-70
2023/08/19 05:26:28;;;;;;;0.60;0.60;;;22.30;63.70;;;;;;6267738;28;20021;-71
2023/08/19 05:29:29;;;;;;;0.80;0.80;;;22.30;63.70;;;;;;6268221;28;20028;-70
2023/08/19 05:32:30;;;;;;;0.70;0.70;;;22.20;63.60;;;;;;6247209;28;20484;-70
2023/08/19 05:35:30;;;;;;;1.17;0.60;;;22.20;63.60;;;;;;6257720;28;20375;-70
2023/08/19 05:38:31;;;;;;;1.20;0.70;;;22.20;63.60;;;;;;6269881;28;20041;-71
2023/08/19 05:41:31;;;;;;;0.60;0.60;;;22.30;63.70;;;;;;6252299;28;20022;-71
2023/08/19 05:44:32;;;;;;;0.95;0.85;;;22.30;63.70;;;;;;6248830;28;20075;-71
2023/08/19 05:47:33;;;;;;;0.73;0.73;;;22.30;63.70;;;;;;6271636;28;20093;-71
2023/08/19 05:50:34;;;;;;;0.70;0.70;;;22.30;63.70;;;;;;6261286;28;20014;-71
2023/08/19 05:53:35;;;;;;;0.90;0.80;;;22.30;63.70;;;;;;6246799;28;20025;-71
2023/08/19 05:56:35;;;;;;;0.90;0.80;;;22.20;63.60;;;;;;6264050;28;20056;-70
2023/08/19 05:59:36;;;;;;;0.90;0.80;;;22.20;63.60;;;;;;6270541;28;20553;-71
2023/08/19 06:02:37;;;;;;;0.85;0.80;;;22.20;63.60;;;;;;6246420;28;20046;-71
2023/08/19 06:05:37;;;;;;;0.98;0.90;;;22.20;63.60;;;;;;6254073;28;20025;-70
2023/08/19 06:08:38;;;;;;;0.80;0.80;;;22.30;63.70;;;;;;6270567;28;20096;-71
2023/08/19 06:11:50;;;;;;;0.95;0.85;;;22.20;63.60;;;;;;6255233;28;20436;-71
2023/08/19 06:14:51;;;;;;;0.90;0.90;;;22.30;63.70;;;;;;6246573;28;20510;-70
2023/08/19 06:17:51;;;;;;;0.95;0.85;;;22.30;63.70;;;;;;6270520;28;20025;-71
2023/08/19 06:20:52;;;;;;;0.70;0.70;;;22.20;63.60;;;;;;6262496;28;20069;-70
2023/08/19 06:23:53;;;;;;;0.88;0.88;;;22.30;63.70;;;;;;6242694;28;20042;-71
2023/08/19 06:26:54;;;;;;;0.70;0.70;;;22.20;63.60;;;;;;6261374;28;20036;-70
2023/08/19 06:29:54;;;;;;;0.50;0.50;;;22.30;63.70;;;;;;6270188;28;20032;-71
2023/08/19 06:32:55;;;;;;;1.05;0.95;;;22.30;63.70;;;;;;6245491;28;20036;-70
2023/08/19 06:35:57;;;;;;;0.80;0.80;;;22.30;63.70;;;;;;6250838;28;20028;-71
2023/08/19 06:39:07;;;;;;;1.05;0.75;;;22.30;63.70;;;;;;6269893;28;20178;-71
2023/08/19 06:42:10;;;;;;;0.70;0.70;;;22.20;63.60;;;;;;6254146;28;20080;-70
2023/08/19 06:45:11;;;;;;;0.60;0.60;;;22.30;63.70;;;;;;6260446;28;20496;-70
2023/08/19 06:48:15;;;;;;;0.70;0.70;;;22.30;63.70;;;;;;6268656;28;20032;-70
2023/08/19 06:51:16;;;;;;;0.70;0.70;;;22.30;63.70;;;;;;6262651;28;20079;-71
2023/08/19 06:54:17;;;;;;;0.95;0.82;;;22.20;63.60;;;;;;6244918;28;20055;-71
2023/08/19 06:57:29;;;;;;;0.65;0.65;;;22.30;63.70;;;;;;6260497;28;20036;-71
2023/08/19 07:00:33;;;;;;;1.10;0.80;;;22.30;63.70;;;;;;6269637;28;20550;-70
2023/08/19 07:03:36;;;;;;;0.63;0.63;;;22.30;63.70;;;;;;6219109;28;20026;-70
2023/08/19 07:06:37;;;;;;;0.82;0.68;;;22.30;63.70;;;;;;6236318;28;20021;-70
2023/08/19 07:09:38;;;;;;;1.00;0.90;;;22.30;63.70;;;;;;6270361;28;20459;-71
2023/08/19 07:12:38;;;;;;;0.80;0.80;;;22.30;63.70;;;;;;6254134;28;20025;-71
2023/08/19 07:15:45;;;;;;;0.70;0.70;;;22.30;63.70;;;;;;6243937;28;20136;-70
2023/08/19 07:18:48;;;;;;;0.80;0.80;;;22.30;63.70;;;;;;6268003;28;20040;-70
2023/08/19 07:21:49;;;;;;;0.80;0.80;;;22.30;63.80;;;;;;6260877;28;20322;-70
2023/08/19 07:24:51;;;;;;;0.70;0.70;;;22.30;63.70;;;;;;6244241;28;20067;-70
2023/08/19 07:27:53;;;;;;;0.80;0.80;;;22.30;63.70;;;;;;6259735;28;20116;-70
2023/08/19 07:30:54;;;;;;;1.52;0.95;;;22.20;63.60;;;;;;6268372;28;20032;-70
2023/08/19 07:33:55;;;;;;;0.70;0.65;;;22.30;64.60;;;;;;6242940;28;20059;-70
2023/08/19 07:36:55;;;;;;;0.70;0.70;;;22.30;63.70;;;;;;6250052;28;20088;-71
2023/08/19 07:39:59;;;;;;;0.95;0.88;;;22.30;63.70;;;;;;6268752;28;20399;-71
2023/08/19 07:43:00;;;;;;;1.43;1.10;;;22.30;63.70;;;;;;6264073;28;20161;-70
2023/08/19 07:46:00;;;;;;;1.23;0.70;;;22.30;63.70;;;;;;6267507;28;20475;-71
2023/08/19 07:49:01;;;;;;;0.90;0.80;;;22.30;63.70;;;;;;6247096;28;20033;-70
2023/08/19 07:52:03;;;;;;;0.70;0.70;;;22.30;63.70;;;;;;6249175;28;20403;-70
2023/08/19 07:55:04;;;;;;;0.82;0.80;;;22.30;63.80;;;;;;6268472;28;20025;-70
2023/08/19 07:58:05;;;;;;;0.70;0.70;;;22.30;63.70;;;;;;6255424;28;20439;-71
2023/08/19 08:01:05;;;;;;;1.27;0.98;;;22.30;63.70;;;;;;6243523;28;20022;-71
2023/08/19 08:04:06;;;;;;;0.70;0.70;;;22.20;63.70;;;;;;6265101;28;20048;-71
2023/08/19 08:07:07;;;;;;;0.80;0.80;;;22.30;63.70;;;;;;6264387;28;20384;-71
2023/08/19 08:10:08;;;;;;;0.90;0.90;;;22.30;63.80;;;;;;6242675;28;20054;-71
2023/08/19 08:13:08;;;;;;;0.70;0.70;;;22.30;63.70;;;;;;6255237;28;20395;-71
2023/08/19 08:16:09;;;;;;;0.73;0.73;;;22.30;63.70;;;;;;6268231;28;20108;-70
2023/08/19 08:19:10;;;;;;;0.70;0.70;;;22.20;63.60;;;;;;6247729;28;20033;-70
2023/08/19 08:22:10;;;;;;;0.77;0.77;;;22.30;63.70;;;;;;6245882;28;20028;-71
2023/08/19 08:25:11;;;;;;;0.77;0.77;;;22.30;63.70;;;;;;6268047;28;20037;-71
2023/08/19 08:28:11;;;;;;;0.77;0.77;;;22.30;63.70;;;;;;6256926;28;20112;-71
2023/08/19 08:31:12;;;;;;;0.80;0.80;;;22.30;63.70;;;;;;6242509;28;20022;-71
2023/08/19 08:34:13;;;;;;;0.70;0.70;;;22.30;63.70;;;;;;6258730;28;20430;-70
2023/08/19 08:37:13;;;;;;;0.70;0.68;;;22.20;63.60;;;;;;6265845;28;20028;-70
2023/08/19 08:40:14;;;;;;;0.88;0.60;;;22.30;63.70;;;;;;6242323;28;20049;-70
2023/08/19 08:43:15;;;;;;;0.77;0.73;;;22.20;63.60;;;;;;6251489;28;20031;-71
2023/08/19 08:46:18;;;;;;;0.70;0.70;;;22.30;63.70;;;;;;6267975;28;20036;-69
2023/08/19 08:49:19;;;;;;;0.88;0.70;;;22.30;63.70;;;;;;6255062;28;20543;-71
2023/08/19 08:52:20;;;;;;;0.88;0.60;;;22.30;63.70;;;;;;6247284;28;20026;-70
2023/08/19 08:55:21;;;;;;;0.65;0.65;;;22.30;63.70;;;;;;6271537;28;20028;-71
2023/08/19 08:58:21;;;;;;;0.70;0.70;;;22.20;63.60;;;;;;6264283;28;20029;-71
2023/08/19 09:01:24;;;;;;;0.73;0.73;;;22.30;63.70;;;;;;6247545;28;20034;-71
2023/08/19 09:04:28;;;;;;;0.60;0.60;;;22.30;63.80;;;;;;6262940;28;20028;-71
2023/08/19 09:07:32;;;;;;;0.82;0.63;;;22.20;63.70;;;;;;6272193;28;20036;-71
2023/08/19 09:10:34;;;;;;;0.77;0.77;;;22.30;63.70;;;;;;6246249;28;20057;-71
2023/08/19 09:13:35;;;;;;;0.80;0.73;;;22.30;63.70;;;;;;6254159;28;20064;-70
2023/08/19 09:16:36;;;;;;;1.08;0.70;;;22.20;63.60;;;;;;6271802;28;20017;-70
2023/08/19 09:19:38;;;;;;;0.60;0.60;;;22.20;63.60;;;;;;6256942;28;20099;-71
2023/08/19 09:22:42;;;;;;;0.77;0.70;;;22.30;63.80;;;;;;6246698;28;20040;-70
2023/08/19 09:25:42;;;;;;;0.40;0.40;;;22.20;63.60;;;;;;6270212;28;20025;-70
2023/08/19 09:28:43;;;;;;;0.75;0.75;;;22.30;63.70;;;;;;6265009;28;20464;-71
2023/08/19 09:31:43;;;;;;;0.68;0.60;;;22.30;63.70;;;;;;6245291;28;20100;-70
2023/08/19 09:34:44;;;;;;;0.60;0.60;;;22.30;63.70;;;;;;6260741;28;20467;-70
2023/08/19 09:37:45;;;;;;;0.65;0.65;;;22.30;63.70;;;;;;6271188;28;20040;-70
2023/08/19 09:40:55;;;;;;;0.80;0.80;;;22.20;64.10;;;;;;6248536;28;20030;-70
2023/08/19 09:43:57;;;;;;;0.60;0.60;;;22.20;63.60;;;;;;6252532;28;20013;-70
2023/08/19 09:47:01;;;;;;;0.55;0.55;;;22.30;63.70;;;;;;6271250;28;20024;-70
2023/08/19 09:50:03;;;;;;;0.70;0.70;;;22.20;63.60;;;;;;6257393;28;20021;-70
2023/08/19 09:53:04;;;;;;;0.85;0.80;;;22.30;63.80;;;;;;6245483;28;20065;-71
2023/08/19 09:56:05;;;;;;;0.50;0.50;;;22.30;63.70;;;;;;6268263;28;20483;-70
2023/08/19 09:59:06;;;;;;;0.50;0.50;;;22.30;63.70;;;;;;6265441;28;20040;-71
2023/08/19 10:02:11;;;;;;;0.70;0.70;;;22.30;63.80;;;;;;6247591;28;20033;-71
2023/08/19 10:05:12;;;;;;;0.50;0.50;;;22.30;63.70;;;;;;6259643;28;20024;-71
2023/08/19 10:08:22;;;;;;;0.63;0.63;;;22.30;63.70;;;;;;6271200;28;20037;-71
2023/08/19 10:11:24;;;;;;;1.00;0.90;;;22.30;63.70;;;;;;6248173;28;20049;-71
2023/08/19 10:14:31;;;;;;;0.70;0.70;;;22.30;63.70;;;;;;6251366;28;20104;-71
2023/08/19 10:17:36;;;;;;;0.70;0.70;;;22.30;63.70;;;;;;6270449;28;20029;-71
2023/08/19 10:20:39;;;;;;;0.50;0.50;;;22.30;63.80;;;;;;6254575;28;20472;-71
2023/08/19 10:23:43;;;;;;;0.85;0.70;;;22.30;63.70;;;;;;6244961;28;20032;-70
2023/08/19 10:26:48;;;;;;;0.57;0.57;;;22.20;63.60;;;;;;6267891;28;20036;-71
2023/08/19 10:29:57;;;;;;;0.65;0.65;;;22.30;63.70;;;;;;6262644;28;20030;-70
2023/08/19 10:33:28;;;;;;;0.60;0.55;;;22.30;63.70;;;;;;6245167;28;20029;-71
2023/08/19 10:36:29;;;;;;;0.63;0.60;;;22.30;63.70;;;;;;6262775;28;20033;-71
2023/08/19 10:39:30;;;;;;;0.40;0.40;;;22.30;63.70;;;;;;6266805;28;20030;-71
2023/08/19 10:42:31;;;;;;;0.50;0.50;;;22.30;63.70;;;;;;6245457;28;20056;-71
2023/08/19 10:45:33;;;;;;;0.43;0.43;;;22.30;63.70;;;;;;6254725;28;20386;-70
2023/08/19 10:48:34;;;;;;;0.93;0.70;;;22.30;63.70;;;;;;6270024;28;20043;-70
2023/08/19 10:51:53;;;;;;;0.60;0.50;;;22.30;63.70;;;;;;6251287;28;20022;-70
2023/08/19 10:54:57;;;;;;;0.60;0.60;;;22.30;63.70;;;;;;6249087;28;20483;-70
2023/08/19 10:57:58;;;;;;;0.88;0.70;;;22.30;63.70;;;;;;6269007;28;20017;-70
2023/08/19 11:01:00;;;;;;;0.50;0.50;;;22.20;63.60;;;;;;6256815;28;20388;-71
2023/08/19 11:04:01;;;;;;;0.80;0.60;;;22.20;63.60;;;;;;6244166;28;20476;-71
2023/08/19 11:07:04;;;;;;;0.60;0.60;;;22.20;63.60;;;;;;6265138;28;20024;-71
2023/08/19 11:10:05;;;;;;;0.75;0.65;;;22.20;63.60;;;;;;6265220;28;20033;-71
2023/08/19 11:13:06;;;;;;;0.60;0.60;;;22.20;63.60;;;;;;6243973;28;20538;-71
2023/08/19 11:16:06;;;;;;;1.02;0.60;;;22.20;63.60;;;;;;6254632;28;20021;-71
2023/08/19 11:19:08;;;;;;;0.57;0.55;;;22.30;63.70;;;;;;6266787;28;20063;-70
2023/08/19 11:22:16;;;;;;;0.70;0.63;;;22.30;63.70;;;;;;6249636;28;20029;-71
2023/08/19 11:25:16;;;;;;;0.52;0.52;;;22.30;63.70;;;;;;6244280;28;20028;-70
2023/08/19 11:28:17;;;;;;;0.80;0.70;;;22.30;63.70;;;;;;6244327;28;20057;-70
2023/08/19 11:31:18;;;;;;;0.80;0.63;;;22.30;63.70;;;;;;6254564;28;20025;-70
2023/08/19 11:34:18;;;;;;;0.90;0.80;;;22.30;63.70;;;;;;6269060;28;20029;-71
2023/08/19 11:37:20;;;;;;;0.63;0.63;;;22.30;63.70;;;;;;6250258;28;20032;-70
2023/08/19 11:40:21;;;;;;;0.90;0.70;;;22.30;63.70;;;;;;6245852;28;20061;-71
2023/08/19 11:43:23;;;;;;;0.60;0.60;;;22.30;63.70;;;;;;6246312;28;20057;-70
2023/08/19 11:46:29;;;;;;;0.60;0.60;;;22.30;63.80;;;;;;6253485;28;20108;-71
2023/08/19 11:49:30;;;;;;;0.80;0.80;;;22.30;63.80;;;;;;6268164;28;20029;-70
2023/08/19 11:52:32;;;;;;;0.70;0.60;;;22.30;63.80;;;;;;6231425;28;20059;-71
2023/08/19 11:55:36;;;;;;;0.70;0.70;;;22.30;63.80;;;;;;6243570;28;20034;-70
2023/08/19 11:58:53;;;;;;;0.60;0.60;;;22.30;63.80;;;;;;6247774;28;20025;-70
2023/08/19 12:01:53;;;;;;;0.50;0.50;;;22.20;63.60;;;;;;6242551;28;20035;-70
2023/08/19 12:04:54;;;;;;;0.63;0.63;;;22.30;63.80;;;;;;6243295;28;20029;-71
2023/08/19 12:07:55;;;;;;;0.57;0.57;;;22.20;63.70;;;;;;6245030;28;20029;-71
2023/08/19 12:10:56;;;;;;;0.50;0.50;;;22.30;63.80;;;;;;6262094;28;20361;-70
2023/08/19 12:13:57;;;;;;;0.70;0.70;;;22.30;63.80;;;;;;6241560;28;20398;-70
2023/08/19 12:16:57;;;;;;;0.57;0.57;;;22.30;63.80;;;;;;6242511;28;20033;-70
2023/08/19 12:19:58;;;;;;;0.50;0.50;;;22.30;63.80;;;;;;6241945;28;20399;-70
2023/08/19 12:22:58;;;;;;;0.75;0.65;;;22.30;63.80;;;;;;6243842;28;20105;-70
2023/08/19 12:26:00;;;;;;;0.70;0.70;;;22.30;63.80;;;;;;6247518;28;20040;-70
2023/08/19 12:29:01;;;;;;;0.65;0.65;;;22.30;63.80;;;;;;6251685;28;20028;-70
2023/08/19 12:32:01;;;;;;;0.60;0.60;;;22.30;64.70;;;;;;6250254;28;20021;-69
2023/08/19 12:35:04;;;;;;;0.95;0.80;;;22.30;63.80;;;;;;6243553;28;20025;-70
2023/08/19 12:38:05;;;;;;;0.60;0.60;;;22.30;63.80;;;;;;6240410;28;20396;-70
2023/08/19 12:41:06;;;;;;;0.60;0.60;;;22.20;63.70;;;;;;6246531;28;20034;-70
2023/08/19 12:44:06;;;;;;;0.73;0.73;;;22.30;63.90;;;;;;6242747;28;20033;-70
2023/08/19 12:47:07;;;;;;;0.50;0.50;;;22.30;63.80;;;;;;6247823;28;20061;-71
2023/08/19 12:50:08;;;;;;;0.50;0.50;;;22.30;63.80;;;;;;6237128;28;20032;-70
2023/08/19 12:53:09;;;;;;;0.60;0.60;;;22.30;64.00;;;;;;6247521;28;20392;-70
2023/08/19 12:56:10;;;;;;;0.73;0.70;;;22.30;63.80;;;;;;6244838;28;20021;-70
2023/08/19 12:59:11;;;;;;;0.63;0.63;;;22.30;63.80;;;;;;6248061;28;20041;-70
2023/08/19 13:02:11;;;;;;;0.70;0.70;;;22.30;63.80;;;;;;6244391;28;20536;-71
2023/08/19 13:05:12;;;;;;;0.70;0.70;;;22.30;63.90;;;;;;6245208;28;20037;-70
2023/08/19 13:08:13;;;;;;;0.60;0.60;;;22.30;63.80;;;;;;6247085;28;20198;-71
2023/08/19 13:11:13;;;;;;;0.57;0.50;;;22.20;63.70;;;;;;6242699;28;20081;-70
2023/08/19 13:14:14;;;;;;;0.60;0.60;;;22.30;63.80;;;;;;6245483;28;20030;-69
2023/08/19 13:17:15;;;;;;;0.60;0.57;;;22.30;63.80;;;;;;6245518;28;20029;-69
2023/08/19 13:20:17;;;;;;;0.80;0.70;;;22.30;63.80;;;;;;6245032;28;20037;-69
2023/08/19 13:23:17;;;;;;;0.70;0.55;;;22.20;63.70;;;;;;6244858;28;20160;-69
2023/08/19 13:26:18;;;;;;;0.60;0.60;;;22.30;63.90;;;;;;6244820;28;20029;-69
2023/08/19 13:29:18;;;;;;;0.70;0.65;;;22.30;63.90;;;;;;6246856;28;20051;-69
2023/08/19 13:32:19;;;;;;;0.55;0.55;;;22.30;63.90;;;;;;6246385;28;20064;-69
2023/08/19 13:35:19;;;;;;;0.60;0.60;;;22.30;63.80;;;;;;6243576;28;20211;-69
2023/08/19 13:38:20;;;;;;;1.08;0.95;;;22.30;63.90;;;;;;6246598;28;20048;-69
2023/08/19 13:41:21;;;;;;;0.60;0.50;;;22.30;63.90;;;;;;6243657;28;20041;-69
2023/08/19 13:44:25;;;;;;;0.75;0.73;;;22.30;63.80;;;;;;6245753;28;20030;-68
2023/08/19 13:47:25;;;;;;;0.60;0.60;;;22.30;63.80;;;;;;6245868;28;20511;-69
2023/08/19 13:50:26;;;;;;;1.95;0.50;;;22.30;63.90;;;;;;6244668;28;20053;-68
2023/08/19 13:53:27;;;;;;;1.10;0.70;;;22.30;63.90;;;;;;6245067;28;20026;-69
2023/08/19 13:56:27;;;;;;;0.73;0.68;;;22.20;63.70;;;;;;6235019;28;20040;-69
2023/08/19 13:59:28;;;;;;;0.80;0.70;;;22.30;63.90;;;;;;6244860;28;20059;-69
2023/08/19 14:02:28;;;;;;;0.68;0.50;;;22.30;63.90;;;;;;6243157;28;20026;-69
2023/08/19 14:05:29;;;;;;;0.75;0.68;;;22.30;63.90;;;;;;6242975;28;20030;-69
2023/08/19 14:08:29;;;;;;;0.65;0.55;;;22.30;63.90;;;;;;6243970;28;20143;-69
2023/08/19 14:11:30;;;;;;;1.13;0.85;;;22.20;63.70;;;;;;6243843;28;20041;-69
2023/08/19 14:14:32;;;;;;;0.73;0.70;;;22.30;63.90;;;;;;6243017;28;20060;-69
2023/08/19 14:17:32;;;;;;;0.88;0.80;;;22.30;63.90;;;;;;6243966;28;20025;-68
2023/08/19 14:20:33;;;;;;;0.60;0.60;;;22.30;63.90;;;;;;6243261;28;20037;-69
2023/08/19 14:23:36;;;;;;;0.70;0.70;;;22.20;63.80;;;;;;6242263;28;20033;-69
2023/08/19 14:26:36;;;;;;;0.63;0.60;;;22.30;63.90;;;;;;6243320;28;20021;-69
2023/08/19 14:29:37;;;;;;;0.63;0.63;;;22.30;63.90;;;;;;6243263;28;20027;-69
2023/08/19 14:32:38;;;;;;;0.68;0.65;;;22.30;63.90;;;;;;6243130;28;20071;-69
2023/08/19 14:35:41;;;;;;;2.13;0.75;;;22.30;63.90;;;;;;6242738;28;20109;-69
2023/08/19 14:38:43;;;;;;;1.75;0.70;;;22.30;63.90;;;;;;6247530;28;20618;-69
2023/08/19 14:41:43;;;;;;;0.68;0.60;;;22.30;63.90;;;;;;6239867;28;20503;-69
2023/08/19 14:44:44;;;;;;;0.70;0.70;;;22.30;63.90;;;;;;6251362;28;20049;-69
2023/08/19 14:47:44;;;;;;;0.70;0.70;;;22.30;63.90;;;;;;6242950;28;20101;-69
2023/08/19 14:50:45;;;;;;;0.80;0.80;;;22.20;63.80;;;;;;6262802;28;20103;-68
2023/08/19 14:53:46;;;;;;;0.70;0.70;;;22.30;63.90;;;;;;6266563;28;20028;-68
2023/08/19 14:56:46;;;;;;;0.80;0.70;;;22.30;63.90;;;;;;6248773;28;20036;-69
2023/08/19 14:59:47;;;;;;;1.30;1.00;;;22.20;63.80;;;;;;6253531;28;20047;-69
2023/08/19 15:02:51;;;;;;;0.77;0.60;;;22.30;63.90;;;;;;6267068;28;20032;-68
2023/08/19 15:05:51;;;;;;;0.53;0.53;;;22.30;63.90;;;;;;6265736;28;20044;-69
2023/08/19 15:08:52;;;;;;;1.00;0.90;;;22.30;63.90;;;;;;6265066;28;20106;-69
2023/08/19 15:11:53;;;;;;;0.63;0.60;;;22.20;63.80;;;;;;6253325;28;20057;-69
2023/08/19 15:14:53;;;;;;;0.57;0.57;;;22.30;63.90;;;;;;6243859;28;20494;-69
2023/08/19 15:17:54;;;;;;;1.00;0.90;;;22.30;63.90;;;;;;6242095;28;20029;-69
2023/08/19 15:20:54;;;;;;;1.00;0.90;;;22.30;63.90;;;;;;6258819;28;20479;-69
2023/08/19 15:23:55;;;;;;;0.60;0.60;;;22.30;63.90;;;;;;6247870;28;20040;-69
2023/08/19 15:26:56;;;;;;;0.82;0.82;;;22.30;63.90;;;;;;6266402;28;20027;-69
2023/08/19 15:29:56;;;;;;;0.82;0.80;;;22.30;63.90;;;;;;6258179;28;20021;-69
2023/08/19 15:32:57;;;;;;;0.90;0.80;;;22.30;63.90;;;;;;6241419;28;20092;-68
2023/08/19 15:35:58;;;;;;;0.73;0.73;;;22.20;63.90;;;;;;6257867;28;20460;-69
2023/08/19 15:38:58;;;;;;;0.88;0.88;;;22.30;63.90;;;;;;6266216;28;20025;-69
2023/08/19 15:41:59;;;;;;;0.77;0.77;;;22.30;63.90;;;;;;6244145;28;20025;-69
2023/08/19 15:45:01;;;;;;;0.70;0.68;;;22.30;63.90;;;;;;6241276;28;20075;-69
2023/08/19 15:48:02;;;;;;;0.88;0.88;;;22.20;63.80;;;;;;6242056;28;20464;-69